sensor_id;sensor_type;location;lat;lon;timestamp;P1;durP1;ratioP1;P2;durP2;ratioP2
75818;SDS011;64453;51.944;9.796;2023-06-22T00:01:18;11.53;;;8.73;;
75818;SDS011;64453;51.944;9.796;2023-06-22T00:03:45;15.40;;;8.37;;
75818;SDS011;64453;51.944;9.796;2023-06-22T00:06:12;10.00;;;8.47;;
75818;SDS011;64453;51.944;9.796;2023-06-22T00:08:39;13.53;;;8.90;;
75818;SDS011;64453;51.944;9.796;2023-06-22T00:11:06;13.80;;;8.97;;
75818;SDS011;64453;51.944;9.796;2023-06-22T00:13:33;16.00;;;9.37;;
75818;SDS011;64453;51.944;9.796;2023-06-22T00:16:02;10.33;;;7.83;;
75818;SDS011;64453;51.944;9.796;2023-06-22T00:18:29;11.60;;;8.27;;
75818;SDS011;64453;51.944;9.796;2023-06-22T00:20:56;19.83;;;8.80;;
75818;SDS011;64453;51.944;9.796;2023-06-22T00:23:24;12.17;;;8.80;;
75818;SDS011;64453;51.944;9.796;2023-06-22T00:25:51;17.73;;;8.90;;
75818;SDS011;64453;51.944;9.796;2023-06-22T00:28:18;11.07;;;10.00;;
75818;SDS011;64453;51.944;9.796;2023-06-22T00:30:46;14.30;;;9.33;;
75818;SDS011;64453;51.944;9.796;2023-06-22T00:33:15;16.53;;;10.47;;
75818;SDS011;64453;51.944;9.796;2023-06-22T00:35:42;16.47;;;9.40;;
75818;SDS011;64453;51.944;9.796;2023-06-22T00:38:09;11.70;;;8.53;;
75818;SDS011;64453;51.944;9.796;2023-06-22T00:40:36;17.00;;;9.90;;
75818;SDS011;64453;51.944;9.796;2023-06-22T00:43:05;15.30;;;8.77;;
75818;SDS011;64453;51.944;9.796;2023-06-22T00:45:32;16.77;;;8.03;;
75818;SDS011;64453;51.944;9.796;2023-06-22T00:47:59;31.70;;;9.27;;
75818;SDS011;64453;51.944;9.796;2023-06-22T00:50:29;16.57;;;8.73;;
75818;SDS011;64453;51.944;9.796;2023-06-22T00:52:59;30.90;;;8.90;;
75818;SDS011;64453;51.944;9.796;2023-06-22T00:55:29;22.40;;;9.23;;
75818;SDS011;64453;51.944;9.796;2023-06-22T00:57:56;37.37;;;9.17;;
75818;SDS011;64453;51.944;9.796;2023-06-22T01:00:23;18.23;;;9.30;;
75818;SDS011;64453;51.944;9.796;2023-06-22T01:02:51;16.57;;;9.27;;
75818;SDS011;64453;51.944;9.796;2023-06-22T01:05:19;9.60;;;8.63;;
75818;SDS011;64453;51.944;9.796;2023-06-22T01:07:52;19.27;;;8.50;;
75818;SDS011;64453;51.944;9.796;2023-06-22T01:10:33;19.33;;;9.30;;
75818;SDS011;64453;51.944;9.796;2023-06-22T01:13:07;18.20;;;8.50;;
75818;SDS011;64453;51.944;9.796;2023-06-22T01:15:44;16.00;;;9.20;;
75818;SDS011;64453;51.944;9.796;2023-06-22T01:18:16;13.07;;;8.30;;
75818;SDS011;64453;51.944;9.796;2023-06-22T01:20:45;14.97;;;8.50;;
75818;SDS011;64453;51.944;9.796;2023-06-22T01:23:17;27.53;;;9.43;;
75818;SDS011;64453;51.944;9.796;2023-06-22T01:25:57;20.07;;;10.00;;
75818;SDS011;64453;51.944;9.796;2023-06-22T01:28:37;19.60;;;9.90;;
75818;SDS011;64453;51.944;9.796;2023-06-22T01:31:10;20.90;;;8.30;;
75818;SDS011;64453;51.944;9.796;2023-06-22T01:33:41;21.13;;;9.47;;
75818;SDS011;64453;51.944;9.796;2023-06-22T01:36:10;12.90;;;9.70;;
75818;SDS011;64453;51.944;9.796;2023-06-22T01:38:39;16.93;;;9.17;;
75818;SDS011;64453;51.944;9.796;2023-06-22T01:41:06;13.00;;;8.97;;
75818;SDS011;64453;51.944;9.796;2023-06-22T01:43:33;12.40;;;9.87;;
75818;SDS011;64453;51.944;9.796;2023-06-22T01:46:02;9.87;;;8.87;;
75818;SDS011;64453;51.944;9.796;2023-06-22T01:48:30;15.17;;;9.00;;
75818;SDS011;64453;51.944;9.796;2023-06-22T01:50:57;20.67;;;9.00;;
75818;SDS011;64453;51.944;9.796;2023-06-22T01:53:24;16.37;;;8.67;;
75818;SDS011;64453;51.944;9.796;2023-06-22T01:55:51;16.93;;;8.70;;
75818;SDS011;64453;51.944;9.796;2023-06-22T01:58:19;24.43;;;8.63;;
75818;SDS011;64453;51.944;9.796;2023-06-22T02:00:53;18.70;;;8.30;;
75818;SDS011;64453;51.944;9.796;2023-06-22T02:03:30;20.67;;;8.87;;
75818;SDS011;64453;51.944;9.796;2023-06-22T02:06:03;12.20;;;9.20;;
75818;SDS011;64453;51.944;9.796;2023-06-22T02:08:35;17.67;;;10.27;;
75818;SDS011;64453;51.944;9.796;2023-06-22T02:11:06;18.20;;;9.57;;
75818;SDS011;64453;51.944;9.796;2023-06-22T02:13:35;18.90;;;9.40;;
75818;SDS011;64453;51.944;9.796;2023-06-22T02:16:09;15.50;;;8.80;;
75818;SDS011;64453;51.944;9.796;2023-06-22T02:18:37;18.60;;;8.37;;
75818;SDS011;64453;51.944;9.796;2023-06-22T02:21:05;15.50;;;8.80;;
75818;SDS011;64453;51.944;9.796;2023-06-22T02:23:32;13.93;;;9.33;;
75818;SDS011;64453;51.944;9.796;2023-06-22T02:26:00;22.27;;;9.13;;
75818;SDS011;64453;51.944;9.796;2023-06-22T02:28:28;19.33;;;9.23;;
75818;SDS011;64453;51.944;9.796;2023-06-22T02:30:55;13.60;;;10.37;;
75818;SDS011;64453;51.944;9.796;2023-06-22T02:33:23;18.43;;;9.23;;
75818;SDS011;64453;51.944;9.796;2023-06-22T02:35:50;19.27;;;9.67;;
75818;SDS011;64453;51.944;9.796;2023-06-22T02:38:17;16.57;;;9.20;;
75818;SDS011;64453;51.944;9.796;2023-06-22T02:40:44;12.20;;;8.57;;
75818;SDS011;64453;51.944;9.796;2023-06-22T02:43:11;15.00;;;8.60;;
75818;SDS011;64453;51.944;9.796;2023-06-22T02:45:38;16.20;;;8.33;;
75818;SDS011;64453;51.944;9.796;2023-06-22T02:48:05;19.10;;;9.27;;
75818;SDS011;64453;51.944;9.796;2023-06-22T02:50:33;20.37;;;9.10;;
75818;SDS011;64453;51.944;9.796;2023-06-22T02:53:00;21.67;;;9.60;;
75818;SDS011;64453;51.944;9.796;2023-06-22T02:55:28;17.53;;;8.70;;
75818;SDS011;64453;51.944;9.796;2023-06-22T02:57:54;17.77;;;8.20;;
75818;SDS011;64453;51.944;9.796;2023-06-22T03:00:22;18.60;;;9.90;;
75818;SDS011;64453;51.944;9.796;2023-06-22T03:02:55;16.13;;;8.73;;
75818;SDS011;64453;51.944;9.796;2023-06-22T03:05:23;17.40;;;9.40;;
75818;SDS011;64453;51.944;9.796;2023-06-22T03:07:52;21.37;;;10.77;;
75818;SDS011;64453;51.944;9.796;2023-06-22T03:10:19;19.67;;;9.27;;
75818;SDS011;64453;51.944;9.796;2023-06-22T03:12:46;21.10;;;9.37;;
75818;SDS011;64453;51.944;9.796;2023-06-22T03:15:13;21.50;;;9.40;;
75818;SDS011;64453;51.944;9.796;2023-06-22T03:17:40;18.43;;;9.23;;
75818;SDS011;64453;51.944;9.796;2023-06-22T03:20:07;19.77;;;9.60;;
75818;SDS011;64453;51.944;9.796;2023-06-22T03:22:36;22.77;;;9.67;;
75818;SDS011;64453;51.944;9.796;2023-06-22T03:25:05;21.87;;;9.30;;
75818;SDS011;64453;51.944;9.796;2023-06-22T03:27:38;13.83;;;9.10;;
75818;SDS011;64453;51.944;9.796;2023-06-22T03:30:05;19.00;;;9.67;;
75818;SDS011;64453;51.944;9.796;2023-06-22T03:32:34;23.37;;;9.60;;
75818;SDS011;64453;51.944;9.796;2023-06-22T03:35:01;20.83;;;9.10;;
75818;SDS011;64453;51.944;9.796;2023-06-22T03:37:29;15.47;;;10.37;;
75818;SDS011;64453;51.944;9.796;2023-06-22T03:39:55;16.60;;;10.10;;
75818;SDS011;64453;51.944;9.796;2023-06-22T03:42:24;17.00;;;9.87;;
75818;SDS011;64453;51.944;9.796;2023-06-22T03:44:50;23.13;;;9.90;;
75818;SDS011;64453;51.944;9.796;2023-06-22T03:47:17;23.70;;;10.37;;
75818;SDS011;64453;51.944;9.796;2023-06-22T03:49:44;15.10;;;9.77;;
75818;SDS011;64453;51.944;9.796;2023-06-22T03:52:11;11.20;;;8.93;;
75818;SDS011;64453;51.944;9.796;2023-06-22T03:54:38;16.60;;;9.70;;
75818;SDS011;64453;51.944;9.796;2023-06-22T03:57:05;16.47;;;9.30;;
75818;SDS011;64453;51.944;9.796;2023-06-22T03:59:33;16.60;;;9.00;;
75818;SDS011;64453;51.944;9.796;2023-06-22T04:02:00;9.47;;;8.53;;
75818;SDS011;64453;51.944;9.796;2023-06-22T04:04:27;11.20;;;10.10;;
75818;SDS011;64453;51.944;9.796;2023-06-22T04:06:54;13.53;;;9.43;;
75818;SDS011;64453;51.944;9.796;2023-06-22T04:09:21;12.77;;;9.77;;
75818;SDS011;64453;51.944;9.796;2023-06-22T04:11:48;14.47;;;10.00;;
75818;SDS011;64453;51.944;9.796;2023-06-22T04:14:14;15.23;;;10.53;;
75818;SDS011;64453;51.944;9.796;2023-06-22T04:16:43;17.27;;;9.97;;
75818;SDS011;64453;51.944;9.796;2023-06-22T04:19:09;15.33;;;10.40;;
75818;SDS011;64453;51.944;9.796;2023-06-22T04:21:41;11.00;;;9.43;;
75818;SDS011;64453;51.944;9.796;2023-06-22T04:24:08;11.90;;;9.77;;
75818;SDS011;64453;51.944;9.796;2023-06-22T04:26:35;10.07;;;9.07;;
75818;SDS011;64453;51.944;9.796;2023-06-22T04:29:03;10.97;;;9.97;;
75818;SDS011;64453;51.944;9.796;2023-06-22T04:31:30;16.43;;;9.67;;
75818;SDS011;64453;51.944;9.796;2023-06-22T04:34:03;14.97;;;9.07;;
75818;SDS011;64453;51.944;9.796;2023-06-22T04:36:33;16.10;;;10.00;;
75818;SDS011;64453;51.944;9.796;2023-06-22T04:39:05;11.83;;;9.87;;
75818;SDS011;64453;51.944;9.796;2023-06-22T04:41:34;10.40;;;9.30;;
75818;SDS011;64453;51.944;9.796;2023-06-22T04:44:08;14.77;;;10.80;;
75818;SDS011;64453;51.944;9.796;2023-06-22T04:46:35;13.23;;;9.80;;
75818;SDS011;64453;51.944;9.796;2023-06-22T04:49:05;15.43;;;9.77;;
75818;SDS011;64453;51.944;9.796;2023-06-22T04:51:35;12.67;;;9.27;;
75818;SDS011;64453;51.944;9.796;2023-06-22T04:54:05;13.47;;;9.90;;
75818;SDS011;64453;51.944;9.796;2023-06-22T04:56:32;12.80;;;9.87;;
75818;SDS011;64453;51.944;9.796;2023-06-22T04:58:59;17.23;;;9.27;;
75818;SDS011;64453;51.944;9.796;2023-06-22T05:01:26;11.90;;;9.63;;
75818;SDS011;64453;51.944;9.796;2023-06-22T05:03:53;16.50;;;9.40;;
75818;SDS011;64453;51.944;9.796;2023-06-22T05:06:23;13.50;;;9.73;;
75818;SDS011;64453;51.944;9.796;2023-06-22T05:08:51;11.63;;;9.17;;
75818;SDS011;64453;51.944;9.796;2023-06-22T05:11:22;11.17;;;10.03;;
75818;SDS011;64453;51.944;9.796;2023-06-22T05:13:50;12.70;;;11.40;;
75818;SDS011;64453;51.944;9.796;2023-06-22T05:16:17;12.40;;;10.80;;
75818;SDS011;64453;51.944;9.796;2023-06-22T05:18:49;12.53;;;11.10;;
75818;SDS011;64453;51.944;9.796;2023-06-22T05:21:21;13.00;;;11.40;;
75818;SDS011;64453;51.944;9.796;2023-06-22T05:23:50;15.40;;;11.33;;
75818;SDS011;64453;51.944;9.796;2023-06-22T05:26:18;12.80;;;10.30;;
75818;SDS011;64453;51.944;9.796;2023-06-22T05:28:45;12.27;;;10.97;;
75818;SDS011;64453;51.944;9.796;2023-06-22T05:31:13;11.20;;;10.10;;
75818;SDS011;64453;51.944;9.796;2023-06-22T05:33:41;11.87;;;10.70;;
75818;SDS011;64453;51.944;9.796;2023-06-22T05:36:09;11.27;;;10.17;;
75818;SDS011;64453;51.944;9.796;2023-06-22T05:38:39;11.67;;;10.43;;
75818;SDS011;64453;51.944;9.796;2023-06-22T05:41:06;17.57;;;11.40;;
75818;SDS011;64453;51.944;9.796;2023-06-22T05:43:34;11.67;;;10.43;;
75818;SDS011;64453;51.944;9.796;2023-06-22T05:46:01;11.77;;;10.57;;
75818;SDS011;64453;51.944;9.796;2023-06-22T05:48:29;11.83;;;10.60;;
75818;SDS011;64453;51.944;9.796;2023-06-22T05:50:56;25.93;;;11.20;;
75818;SDS011;64453;51.944;9.796;2023-06-22T05:53:23;13.83;;;11.30;;
75818;SDS011;64453;51.944;9.796;2023-06-22T05:55:51;11.40;;;10.30;;
75818;SDS011;64453;51.944;9.796;2023-06-22T05:58:18;12.20;;;10.30;;
75818;SDS011;64453;51.944;9.796;2023-06-22T06:00:45;19.20;;;11.47;;
75818;SDS011;64453;51.944;9.796;2023-06-22T06:03:13;18.77;;;11.27;;
75818;SDS011;64453;51.944;9.796;2023-06-22T06:05:42;13.00;;;11.77;;
75818;SDS011;64453;51.944;9.796;2023-06-22T06:08:10;11.27;;;10.10;;
75818;SDS011;64453;51.944;9.796;2023-06-22T06:10:37;12.53;;;11.27;;
75818;SDS011;64453;51.944;9.796;2023-06-22T06:13:05;12.50;;;11.30;;
75818;SDS011;64453;51.944;9.796;2023-06-22T06:15:33;12.20;;;10.83;;
75818;SDS011;64453;51.944;9.796;2023-06-22T06:18:00;10.47;;;9.50;;
75818;SDS011;64453;51.944;9.796;2023-06-22T06:20:30;11.90;;;10.07;;
75818;SDS011;64453;51.944;9.796;2023-06-22T06:22:57;10.70;;;9.80;;
75818;SDS011;64453;51.944;9.796;2023-06-22T06:25:24;11.60;;;10.50;;
75818;SDS011;64453;51.944;9.796;2023-06-22T06:27:51;12.33;;;11.03;;
75818;SDS011;64453;51.944;9.796;2023-06-22T06:30:21;11.97;;;10.50;;
75818;SDS011;64453;51.944;9.796;2023-06-22T06:32:49;17.37;;;11.60;;
75818;SDS011;64453;51.944;9.796;2023-06-22T06:35:16;12.13;;;10.93;;
75818;SDS011;64453;51.944;9.796;2023-06-22T06:37:44;13.27;;;12.07;;
75818;SDS011;64453;51.944;9.796;2023-06-22T06:40:12;12.83;;;11.47;;
75818;SDS011;64453;51.944;9.796;2023-06-22T06:42:40;13.30;;;12.00;;
75818;SDS011;64453;51.944;9.796;2023-06-22T06:45:10;12.23;;;11.23;;
75818;SDS011;64453;51.944;9.796;2023-06-22T06:47:39;12.90;;;11.70;;
75818;SDS011;64453;51.944;9.796;2023-06-22T06:50:06;13.40;;;11.77;;
75818;SDS011;64453;51.944;9.796;2023-06-22T06:52:34;13.90;;;12.27;;
75818;SDS011;64453;51.944;9.796;2023-06-22T06:55:02;11.83;;;10.83;;
75818;SDS011;64453;51.944;9.796;2023-06-22T06:57:33;13.50;;;10.20;;
75818;SDS011;64453;51.944;9.796;2023-06-22T07:00:00;14.10;;;11.20;;
75818;SDS011;64453;51.944;9.796;2023-06-22T07:02:32;13.30;;;12.00;;
75818;SDS011;64453;51.944;9.796;2023-06-22T07:05:00;13.67;;;12.33;;
75818;SDS011;64453;51.944;9.796;2023-06-22T07:07:29;13.23;;;12.03;;
75818;SDS011;64453;51.944;9.796;2023-06-22T07:09:56;12.57;;;11.20;;
75818;SDS011;64453;51.944;9.796;2023-06-22T07:12:23;12.63;;;11.33;;
75818;SDS011;64453;51.944;9.796;2023-06-22T07:14:51;13.43;;;12.23;;
75818;SDS011;64453;51.944;9.796;2023-06-22T07:17:18;12.70;;;11.50;;
75818;SDS011;64453;51.944;9.796;2023-06-22T07:19:45;14.63;;;12.67;;
75818;SDS011;64453;51.944;9.796;2023-06-22T07:22:13;13.10;;;11.80;;
75818;SDS011;64453;51.944;9.796;2023-06-22T07:24:40;13.50;;;12.30;;
75818;SDS011;64453;51.944;9.796;2023-06-22T07:27:07;13.60;;;12.10;;
75818;SDS011;64453;51.944;9.796;2023-06-22T07:29:36;12.63;;;11.43;;
75818;SDS011;64453;51.944;9.796;2023-06-22T07:32:05;13.80;;;12.50;;
75818;SDS011;64453;51.944;9.796;2023-06-22T07:34:32;14.00;;;12.73;;
75818;SDS011;64453;51.944;9.796;2023-06-22T07:36:59;15.33;;;12.60;;
75818;SDS011;64453;51.944;9.796;2023-06-22T07:39:28;13.67;;;12.57;;
75818;SDS011;64453;51.944;9.796;2023-06-22T07:41:55;13.83;;;12.43;;
75818;SDS011;64453;51.944;9.796;2023-06-22T07:44:21;13.23;;;11.90;;
75818;SDS011;64453;51.944;9.796;2023-06-22T07:46:48;13.07;;;11.70;;
75818;SDS011;64453;51.944;9.796;2023-06-22T07:49:15;13.90;;;12.43;;
75818;SDS011;64453;51.944;9.796;2023-06-22T07:51:43;13.60;;;12.00;;
75818;SDS011;64453;51.944;9.796;2023-06-22T07:54:10;13.40;;;12.30;;
75818;SDS011;64453;51.944;9.796;2023-06-22T07:56:38;14.70;;;13.10;;
75818;SDS011;64453;51.944;9.796;2023-06-22T07:59:05;13.93;;;12.73;;
75818;SDS011;64453;51.944;9.796;2023-06-22T08:01:31;40.53;;;14.00;;
75818;SDS011;64453;51.944;9.796;2023-06-22T08:03:58;14.23;;;12.80;;
75818;SDS011;64453;51.944;9.796;2023-06-22T08:06:25;13.90;;;12.70;;
75818;SDS011;64453;51.944;9.796;2023-06-22T08:08:52;14.00;;;12.80;;
75818;SDS011;64453;51.944;9.796;2023-06-22T08:11:22;13.40;;;12.30;;
75818;SDS011;64453;51.944;9.796;2023-06-22T08:13:51;14.43;;;12.93;;
75818;SDS011;64453;51.944;9.796;2023-06-22T08:16:20;13.00;;;11.90;;
75818;SDS011;64453;51.944;9.796;2023-06-22T08:18:47;14.13;;;12.60;;
75818;SDS011;64453;51.944;9.796;2023-06-22T08:21:14;14.90;;;13.50;;
75818;SDS011;64453;51.944;9.796;2023-06-22T08:23:41;15.93;;;14.47;;
75818;SDS011;64453;51.944;9.796;2023-06-22T08:26:08;14.70;;;13.20;;
75818;SDS011;64453;51.944;9.796;2023-06-22T08:28:34;15.10;;;12.23;;
75818;SDS011;64453;51.944;9.796;2023-06-22T08:31:03;13.33;;;12.13;;
75818;SDS011;64453;51.944;9.796;2023-06-22T08:33:30;14.17;;;12.97;;
75818;SDS011;64453;51.944;9.796;2023-06-22T08:35:57;19.43;;;16.17;;
75818;SDS011;64453;51.944;9.796;2023-06-22T08:38:24;16.83;;;14.90;;
75818;SDS011;64453;51.944;9.796;2023-06-22T08:40:52;13.97;;;12.50;;
75818;SDS011;64453;51.944;9.796;2023-06-22T08:43:18;13.50;;;12.20;;
75818;SDS011;64453;51.944;9.796;2023-06-22T08:45:45;14.13;;;12.87;;
75818;SDS011;64453;51.944;9.796;2023-06-22T08:48:14;14.37;;;12.97;;
75818;SDS011;64453;51.944;9.796;2023-06-22T08:50:40;15.20;;;13.60;;
75818;SDS011;64453;51.944;9.796;2023-06-22T08:53:07;17.00;;;15.27;;
75818;SDS011;64453;51.944;9.796;2023-06-22T08:55:34;15.87;;;14.37;;
75818;SDS011;64453;51.944;9.796;2023-06-22T08:58:01;15.20;;;13.43;;
75818;SDS011;64453;51.944;9.796;2023-06-22T09:00:28;12.60;;;11.47;;
75818;SDS011;64453;51.944;9.796;2023-06-22T09:02:59;15.85;;;14.15;;
75818;SDS011;64453;51.944;9.796;2023-06-22T09:05:28;14.70;;;12.70;;
75818;SDS011;64453;51.944;9.796;2023-06-22T09:07:56;15.17;;;13.87;;
75818;SDS011;64453;51.944;9.796;2023-06-22T09:10:23;15.88;;;12.65;;
75818;SDS011;64453;51.944;9.796;2023-06-22T09:12:50;14.93;;;13.45;;
75818;SDS011;64453;51.944;9.796;2023-06-22T09:15:17;14.30;;;12.87;;
75818;SDS011;64453;51.944;9.796;2023-06-22T09:17:44;15.68;;;11.35;;
75818;SDS011;64453;51.944;9.796;2023-06-22T09:20:12;14.05;;;12.85;;
75818;SDS011;64453;51.944;9.796;2023-06-22T09:22:40;14.25;;;12.88;;
75818;SDS011;64453;51.944;9.796;2023-06-22T09:25:07;13.35;;;12.05;;
75818;SDS011;64453;51.944;9.796;2023-06-22T09:27:35;14.37;;;12.90;;
75818;SDS011;64453;51.944;9.796;2023-06-22T09:30:02;13.77;;;12.38;;
75818;SDS011;64453;51.944;9.796;2023-06-22T09:32:30;13.60;;;12.18;;
75818;SDS011;64453;51.944;9.796;2023-06-22T09:34:56;12.88;;;11.68;;
75818;SDS011;64453;51.944;9.796;2023-06-22T09:37:23;11.88;;;10.85;;
75818;SDS011;64453;51.944;9.796;2023-06-22T09:39:51;12.32;;;11.23;;
75818;SDS011;64453;51.944;9.796;2023-06-22T09:42:18;12.52;;;11.32;;
75818;SDS011;64453;51.944;9.796;2023-06-22T09:44:46;12.18;;;10.95;;
75818;SDS011;64453;51.944;9.796;2023-06-22T09:47:12;12.27;;;10.85;;
75818;SDS011;64453;51.944;9.796;2023-06-22T09:49:39;10.75;;;9.75;;
75818;SDS011;64453;51.944;9.796;2023-06-22T09:52:06;10.00;;;9.10;;
75818;SDS011;64453;51.944;9.796;2023-06-22T09:54:34;11.07;;;10.18;;
75818;SDS011;64453;51.944;9.796;2023-06-22T09:57:02;11.38;;;10.38;;
75818;SDS011;64453;51.944;9.796;2023-06-22T09:59:29;12.52;;;11.25;;
75818;SDS011;64453;51.944;9.796;2023-06-22T10:01:56;11.88;;;9.90;;
75818;SDS011;64453;51.944;9.796;2023-06-22T10:04:23;12.80;;;11.55;;
75818;SDS011;64453;51.944;9.796;2023-06-22T10:06:50;11.23;;;10.05;;
75818;SDS011;64453;51.944;9.796;2023-06-22T10:09:17;11.77;;;10.77;;
75818;SDS011;64453;51.944;9.796;2023-06-22T10:11:45;10.23;;;9.32;;
75818;SDS011;64453;51.944;9.796;2023-06-22T10:14:13;9.77;;;8.52;;
75818;SDS011;64453;51.944;9.796;2023-06-22T10:16:39;11.60;;;10.27;;
75818;SDS011;64453;51.944;9.796;2023-06-22T10:19:07;10.48;;;9.55;;
75818;SDS011;64453;51.944;9.796;2023-06-22T10:21:34;15.63;;;10.00;;
75818;SDS011;64453;51.944;9.796;2023-06-22T10:24:01;13.15;;;11.85;;
75818;SDS011;64453;51.944;9.796;2023-06-22T10:26:31;10.55;;;9.55;;
75818;SDS011;64453;51.944;9.796;2023-06-22T10:28:58;11.18;;;10.18;;
75818;SDS011;64453;51.944;9.796;2023-06-22T10:31:26;11.25;;;10.07;;
75818;SDS011;64453;51.944;9.796;2023-06-22T10:33:53;10.63;;;9.55;;
75818;SDS011;64453;51.944;9.796;2023-06-22T10:36:21;10.00;;;9.20;;
75818;SDS011;64453;51.944;9.796;2023-06-22T10:38:49;11.50;;;10.48;;
75818;SDS011;64453;51.944;9.796;2023-06-22T10:41:15;11.57;;;10.40;;
75818;SDS011;64453;51.944;9.796;2023-06-22T10:43:42;10.98;;;9.95;;
75818;SDS011;64453;51.944;9.796;2023-06-22T10:46:09;10.65;;;9.75;;
75818;SDS011;64453;51.944;9.796;2023-06-22T10:48:37;14.88;;;13.43;;
75818;SDS011;64453;51.944;9.796;2023-06-22T10:51:04;14.32;;;9.85;;
75818;SDS011;64453;51.944;9.796;2023-06-22T10:53:31;12.57;;;11.27;;
75818;SDS011;64453;51.944;9.796;2023-06-22T10:55:58;11.75;;;10.75;;
75818;SDS011;64453;51.944;9.796;2023-06-22T10:58:25;13.25;;;11.85;;
75818;SDS011;64453;51.944;9.796;2023-06-22T11:00:52;12.88;;;11.38;;
75818;SDS011;64453;51.944;9.796;2023-06-22T11:03:18;13.45;;;10.70;;
75818;SDS011;64453;51.944;9.796;2023-06-22T11:05:47;10.48;;;9.50;;
75818;SDS011;64453;51.944;9.796;2023-06-22T11:08:13;12.50;;;11.40;;
75818;SDS011;64453;51.944;9.796;2023-06-22T11:10:40;11.30;;;10.25;;
75818;SDS011;64453;51.944;9.796;2023-06-22T11:13:07;12.10;;;10.90;;
75818;SDS011;64453;51.944;9.796;2023-06-22T11:15:35;11.45;;;10.18;;
75818;SDS011;64453;51.944;9.796;2023-06-22T11:18:02;10.68;;;9.70;;
75818;SDS011;64453;51.944;9.796;2023-06-22T11:20:30;18.25;;;10.32;;
75818;SDS011;64453;51.944;9.796;2023-06-22T11:23:01;11.80;;;10.68;;
75818;SDS011;64453;51.944;9.796;2023-06-22T11:25:27;10.05;;;9.15;;
75818;SDS011;64453;51.944;9.796;2023-06-22T11:27:54;9.98;;;9.07;;
75818;SDS011;64453;51.944;9.796;2023-06-22T11:30:21;13.70;;;9.10;;
75818;SDS011;64453;51.944;9.796;2023-06-22T11:32:48;9.13;;;8.30;;
75818;SDS011;64453;51.944;9.796;2023-06-22T11:35:15;9.48;;;8.77;;
75818;SDS011;64453;51.944;9.796;2023-06-22T11:37:42;9.18;;;8.38;;
75818;SDS011;64453;51.944;9.796;2023-06-22T11:40:11;10.23;;;9.23;;
75818;SDS011;64453;51.944;9.796;2023-06-22T11:42:38;8.55;;;7.90;;
75818;SDS011;64453;51.944;9.796;2023-06-22T11:45:06;9.40;;;8.45;;
75818;SDS011;64453;51.944;9.796;2023-06-22T11:47:34;9.23;;;8.43;;
75818;SDS011;64453;51.944;9.796;2023-06-22T11:50:01;9.40;;;8.60;;
75818;SDS011;64453;51.944;9.796;2023-06-22T11:52:29;8.07;;;7.38;;
75818;SDS011;64453;51.944;9.796;2023-06-22T11:54:56;8.93;;;8.13;;
75818;SDS011;64453;51.944;9.796;2023-06-22T11:57:25;8.25;;;7.55;;
75818;SDS011;64453;51.944;9.796;2023-06-22T11:59:52;9.25;;;8.35;;
75818;SDS011;64453;51.944;9.796;2023-06-22T12:02:19;8.70;;;8.00;;
75818;SDS011;64453;51.944;9.796;2023-06-22T12:04:46;8.38;;;7.78;;
75818;SDS011;64453;51.944;9.796;2023-06-22T12:07:13;9.18;;;8.48;;
75818;SDS011;64453;51.944;9.796;2023-06-22T12:09:39;7.93;;;7.22;;
75818;SDS011;64453;51.944;9.796;2023-06-22T12:12:07;9.18;;;8.48;;
75818;SDS011;64453;51.944;9.796;2023-06-22T12:14:36;8.40;;;7.72;;
75818;SDS011;64453;51.944;9.796;2023-06-22T12:17:03;8.93;;;8.13;;
75818;SDS011;64453;51.944;9.796;2023-06-22T12:19:30;9.52;;;8.73;;
75818;SDS011;64453;51.944;9.796;2023-06-22T12:21:57;8.70;;;8.00;;
75818;SDS011;64453;51.944;9.796;2023-06-22T12:24:23;10.52;;;9.63;;
75818;SDS011;64453;51.944;9.796;2023-06-22T12:26:50;9.25;;;8.35;;
75818;SDS011;64453;51.944;9.796;2023-06-22T12:29:17;12.32;;;8.68;;
75818;SDS011;64453;51.944;9.796;2023-06-22T12:31:45;8.88;;;8.07;;
75818;SDS011;64453;51.944;9.796;2023-06-22T12:34:12;10.52;;;8.77;;
75818;SDS011;64453;51.944;9.796;2023-06-22T12:36:39;7.88;;;7.28;;
75818;SDS011;64453;51.944;9.796;2023-06-22T12:39:06;8.55;;;7.85;;
75818;SDS011;64453;51.944;9.796;2023-06-22T12:41:33;8.57;;;7.78;;
75818;SDS011;64453;51.944;9.796;2023-06-22T12:44:00;9.63;;;8.82;;
75818;SDS011;64453;51.944;9.796;2023-06-22T12:46:27;9.18;;;8.50;;
75818;SDS011;64453;51.944;9.796;2023-06-22T12:48:56;10.48;;;9.18;;
75818;SDS011;64453;51.944;9.796;2023-06-22T12:51:25;9.65;;;8.85;;
75818;SDS011;64453;51.944;9.796;2023-06-22T12:53:51;10.45;;;9.65;;
75818;SDS011;64453;51.944;9.796;2023-06-22T12:56:18;10.13;;;9.23;;
75818;SDS011;64453;51.944;9.796;2023-06-22T12:58:45;10.02;;;9.25;;
75818;SDS011;64453;51.944;9.796;2023-06-22T13:01:12;11.45;;;9.23;;
75818;SDS011;64453;51.944;9.796;2023-06-22T13:03:39;9.93;;;9.15;;
75818;SDS011;64453;51.944;9.796;2023-06-22T13:06:09;9.00;;;8.15;;
75818;SDS011;64453;51.944;9.796;2023-06-22T13:08:35;9.05;;;8.35;;
75818;SDS011;64453;51.944;9.796;2023-06-22T13:11:02;9.85;;;8.98;;
75818;SDS011;64453;51.944;9.796;2023-06-22T13:13:29;9.32;;;8.63;;
75818;SDS011;64453;51.944;9.796;2023-06-22T13:15:56;9.27;;;8.57;;
75818;SDS011;64453;51.944;9.796;2023-06-22T13:18:23;9.82;;;9.07;;
75818;SDS011;64453;51.944;9.796;2023-06-22T13:20:50;10.13;;;9.10;;
75818;SDS011;64453;51.944;9.796;2023-06-22T13:23:20;9.73;;;8.35;;
75818;SDS011;64453;51.944;9.796;2023-06-22T13:25:48;10.63;;;9.13;;
75818;SDS011;64453;51.944;9.796;2023-06-22T13:28:15;9.93;;;8.95;;
75818;SDS011;64453;51.944;9.796;2023-06-22T13:30:42;9.90;;;9.10;;
75818;SDS011;64453;51.944;9.796;2023-06-22T13:33:11;10.25;;;9.38;;
75818;SDS011;64453;51.944;9.796;2023-06-22T13:35:38;9.98;;;9.18;;
75818;SDS011;64453;51.944;9.796;2023-06-22T13:38:07;11.10;;;10.15;;
75818;SDS011;64453;51.944;9.796;2023-06-22T13:40:35;10.88;;;9.98;;
75818;SDS011;64453;51.944;9.796;2023-06-22T13:43:03;10.93;;;9.85;;
75818;SDS011;64453;51.944;9.796;2023-06-22T13:45:30;9.98;;;9.23;;
75818;SDS011;64453;51.944;9.796;2023-06-22T13:47:56;10.93;;;9.93;;
75818;SDS011;64453;51.944;9.796;2023-06-22T13:50:23;10.20;;;9.30;;
75818;SDS011;64453;51.944;9.796;2023-06-22T13:52:50;10.48;;;9.57;;
75818;SDS011;64453;51.944;9.796;2023-06-22T13:55:17;11.00;;;10.05;;
75818;SDS011;64453;51.944;9.796;2023-06-22T13:57:47;13.00;;;9.85;;
75818;SDS011;64453;51.944;9.796;2023-06-22T14:00:14;10.98;;;10.05;;
75818;SDS011;64453;51.944;9.796;2023-06-22T14:02:42;11.15;;;10.25;;
75818;SDS011;64453;51.944;9.796;2023-06-22T14:05:09;11.70;;;10.80;;
75818;SDS011;64453;51.944;9.796;2023-06-22T14:07:36;10.18;;;9.25;;
75818;SDS011;64453;51.944;9.796;2023-06-22T14:10:04;11.57;;;10.57;;
75818;SDS011;64453;51.944;9.796;2023-06-22T14:12:34;11.25;;;10.40;;
75818;SDS011;64453;51.944;9.796;2023-06-22T14:15:09;10.73;;;9.82;;
75818;SDS011;64453;51.944;9.796;2023-06-22T14:17:36;10.18;;;9.27;;
75818;SDS011;64453;51.944;9.796;2023-06-22T14:20:04;11.90;;;10.90;;
75818;SDS011;64453;51.944;9.796;2023-06-22T14:22:33;12.63;;;11.43;;
75818;SDS011;64453;51.944;9.796;2023-06-22T14:25:01;10.98;;;10.18;;
75818;SDS011;64453;51.944;9.796;2023-06-22T14:27:29;11.80;;;10.90;;
75818;SDS011;64453;51.944;9.796;2023-06-22T14:29:56;11.35;;;10.43;;
75818;SDS011;64453;51.944;9.796;2023-06-22T14:32:28;12.05;;;11.05;;
75818;SDS011;64453;51.944;9.796;2023-06-22T14:34:55;11.77;;;10.77;;